Time;durP1;ratioP1;P1;durP2;ratioP2;P2;SDS_P1;SDS_P2;PMS_P1;PMS_P2;Temp;Humidity;BMP_temperature;BMP_pressure;BME280_temperature;BME280_humidity;BME280_pressure;Samples;Min_cycle;Max_cycle;Signal;HPM_P1;HPM_P2
2024/01/05 00:01:43;;;;;;;12.73;5.97;;;;;;;;;;5072675;28;20131;-77
2024/01/05 00:04:09;;;;;;;10.75;6.15;;;;;;;;;;5054436;28;20037;-76
2024/01/05 00:06:38;;;;;;;9.85;5.30;;;;;;;;;;5072266;28;20040;-76
2024/01/05 00:09:06;;;;;;;12.43;5.80;;;;;;;;;;5072273;28;20082;-76
2024/01/05 00:11:32;;;;;;;11.45;6.00;;;;;;;;;;5073560;28;20040;-76
2024/01/05 00:13:58;;;;;;;9.23;5.68;;;;;;;;;;5070155;28;20059;-76
2024/01/05 00:16:24;;;;;;;14.43;6.05;;;;;;;;;;5076177;28;20032;-76
2024/01/05 00:18:50;;;;;;;13.23;5.78;;;;;;;;;;5087777;28;20036;-76
2024/01/05 00:21:24;;;;;;;9.15;6.22;;;;;;;;;;5070833;28;20372;-73
2024/01/05 00:23:51;;;;;;;11.75;6.25;;;;;;;;;;5077202;28;20377;-72
2024/01/05 00:26:18;;;;;;;11.98;6.30;;;;;;;;;;5088260;28;20127;-73
2024/01/05 00:28:44;;;;;;;10.00;6.30;;;;;;;;;;5084443;28;20245;-72
2024/01/05 00:31:11;;;;;;;12.75;6.40;;;;;;;;;;5089253;28;20032;-72
2024/01/05 00:33:38;;;;;;;12.57;6.82;;;;;;;;;;5065418;28;20040;-72
2024/01/05 00:36:09;;;;;;;10.82;6.65;;;;;;;;;;5071103;28;20119;-72
2024/01/05 00:38:35;;;;;;;13.30;7.50;;;;;;;;;;5061008;28;20032;-72
2024/01/05 00:41:01;;;;;;;17.42;7.35;;;;;;;;;;5073353;28;20051;-72
2024/01/05 00:43:28;;;;;;;12.25;6.70;;;;;;;;;;5072297;28;20384;-72
2024/01/05 00:45:54;;;;;;;10.35;7.10;;;;;;;;;;5069570;28;20036;-72
2024/01/05 00:48:20;;;;;;;9.27;6.97;;;;;;;;;;5088965;28;20047;-72
2024/01/05 00:50:46;;;;;;;15.60;7.13;;;;;;;;;;5073616;28;20044;-72
2024/01/05 00:53:13;;;;;;;13.00;7.45;;;;;;;;;;5071492;28;20388;-73
2024/01/05 00:55:39;;;;;;;13.82;7.50;;;;;;;;;;5055161;28;20033;-72
2024/01/05 00:58:05;;;;;;;11.63;7.22;;;;;;;;;;5081091;28;20036;-72
2024/01/05 01:00:31;;;;;;;15.43;8.10;;;;;;;;;;5087717;28;20040;-73
2024/01/05 01:02:58;;;;;;;10.40;7.45;;;;;;;;;;5071960;28;20036;-72
2024/01/05 01:05:24;;;;;;;14.98;7.50;;;;;;;;;;5063484;28;20032;-72
2024/01/05 01:07:50;;;;;;;11.73;7.28;;;;;;;;;;5069935;28;20043;-72
2024/01/05 01:10:16;;;;;;;10.60;7.00;;;;;;;;;;5074167;28;20135;-72
2024/01/05 01:12:43;;;;;;;11.13;7.07;;;;;;;;;;5055611;28;20085;-72
2024/01/05 01:15:09;;;;;;;14.70;8.18;;;;;;;;;;5087860;28;20037;-72
2024/01/05 01:17:35;;;;;;;14.23;8.27;;;;;;;;;;5076227;28;20136;-72
2024/01/05 01:20:02;;;;;;;15.45;8.40;;;;;;;;;;5087128;28;20491;-76
2024/01/05 01:22:28;;;;;;;13.63;7.57;;;;;;;;;;5082084;28;20040;-76
2024/01/05 01:24:54;;;;;;;14.00;7.68;;;;;;;;;;5085832;28;20135;-76
2024/01/05 01:27:20;;;;;;;17.02;9.10;;;;;;;;;;5075374;28;20044;-76
2024/01/05 01:29:46;;;;;;;11.80;7.75;;;;;;;;;;5057187;28;20488;-76
2024/01/05 01:32:12;;;;;;;11.30;7.35;;;;;;;;;;5058348;28;20041;-76
2024/01/05 01:34:39;;;;;;;12.27;8.05;;;;;;;;;;5091273;28;20078;-76
2024/01/05 01:37:05;;;;;;;12.45;7.90;;;;;;;;;;5078034;28;20174;-76
2024/01/05 01:39:32;;;;;;;12.95;7.55;;;;;;;;;;5076393;28;20036;-76
2024/01/05 01:41:59;;;;;;;13.27;8.00;;;;;;;;;;5085326;28;20028;-76
2024/01/05 01:44:25;;;;;;;12.05;7.93;;;;;;;;;;5077211;28;20089;-76
2024/01/05 01:46:52;;;;;;;14.50;8.70;;;;;;;;;;5058936;28;20493;-76
2024/01/05 01:49:18;;;;;;;12.80;8.20;;;;;;;;;;5058022;28;20544;-76
2024/01/05 01:51:45;;;;;;;10.77;7.32;;;;;;;;;;5062865;28;20048;-76
2024/01/05 01:54:11;;;;;;;17.42;8.40;;;;;;;;;;5073449;28;20043;-76
2024/01/05 01:56:38;;;;;;;16.25;8.75;;;;;;;;;;5078335;28;20066;-76
2024/01/05 01:59:05;;;;;;;15.70;8.73;;;;;;;;;;5076427;28;20111;-76
2024/01/05 02:01:31;;;;;;;16.90;8.80;;;;;;;;;;5083262;28;20558;-72
2024/01/05 02:03:57;;;;;;;13.20;8.50;;;;;;;;;;5088124;28;20061;-73
2024/01/05 02:06:24;;;;;;;12.95;8.93;;;;;;;;;;5072385;28;20547;-73
2024/01/05 02:08:50;;;;;;;12.10;7.63;;;;;;;;;;5041140;28;20473;-73
2024/01/05 02:11:16;;;;;;;18.23;8.43;;;;;;;;;;5075430;28;20468;-73
2024/01/05 02:13:43;;;;;;;13.68;8.30;;;;;;;;;;5090316;28;20118;-73
2024/01/05 02:16:09;;;;;;;11.63;7.53;;;;;;;;;;5091323;28;20104;-73
2024/01/05 02:18:35;;;;;;;14.40;8.63;;;;;;;;;;5076583;28;20140;-73
2024/01/05 02:21:02;;;;;;;14.80;9.30;;;;;;;;;;5070916;28;20109;-73
2024/01/05 02:23:28;;;;;;;17.48;8.75;;;;;;;;;;5090393;28;20051;-73
2024/01/05 02:25:58;;;;;;;11.18;7.70;;;;;;;;;;5074274;28;20088;-73
2024/01/05 02:28:25;;;;;;;13.80;8.45;;;;;;;;;;5082256;28;20044;-73
2024/01/05 02:30:54;;;;;;;13.25;8.40;;;;;;;;;;5074570;28;20103;-73
2024/01/05 02:33:20;;;;;;;13.40;8.50;;;;;;;;;;5058592;28;20033;-73
2024/01/05 02:35:47;;;;;;;13.55;9.05;;;;;;;;;;5073887;28;20039;-72
2024/01/05 02:38:14;;;;;;;14.13;8.30;;;;;;;;;;5077100;28;20068;-72
2024/01/05 02:40:40;;;;;;;17.05;8.57;;;;;;;;;;5089781;28;20071;-72
2024/01/05 02:43:06;;;;;;;15.02;8.80;;;;;;;;;;5085197;28;20044;-72
2024/01/05 02:45:33;;;;;;;14.48;8.45;;;;;;;;;;5057143;28;20123;-72
2024/01/05 02:47:59;;;;;;;13.57;8.27;;;;;;;;;;5088192;28;20078;-72
2024/01/05 02:50:25;;;;;;;15.23;9.52;;;;;;;;;;5075581;28;20059;-70
2024/01/05 02:52:51;;;;;;;11.52;8.73;;;;;;;;;;5056994;28;20076;-72
2024/01/05 02:55:17;;;;;;;12.43;8.27;;;;;;;;;;5072135;28;20123;-72
2024/01/05 02:57:43;;;;;;;13.05;8.48;;;;;;;;;;5072283;28;20082;-72
2024/01/05 03:00:09;;;;;;;12.63;8.57;;;;;;;;;;5062736;28;20488;-72
2024/01/05 03:02:35;;;;;;;16.67;8.43;;;;;;;;;;5090374;28;20051;-72
2024/01/05 03:05:01;;;;;;;11.85;7.90;;;;;;;;;;5076945;28;20392;-72
2024/01/05 03:07:27;;;;;;;13.82;8.05;;;;;;;;;;5059244;28;20035;-72
2024/01/05 03:09:53;;;;;;;13.50;8.15;;;;;;;;;;5071592;28;20143;-72
2024/01/05 03:12:20;;;;;;;14.73;8.35;;;;;;;;;;5072193;28;20036;-72
2024/01/05 03:14:46;;;;;;;15.60;8.02;;;;;;;;;;5081724;28;20051;-72
2024/01/05 03:17:12;;;;;;;14.90;7.60;;;;;;;;;;5071995;28;20091;-72
2024/01/05 03:19:38;;;;;;;12.57;8.20;;;;;;;;;;5064958;28;20395;-73
2024/01/05 03:22:04;;;;;;;10.57;7.38;;;;;;;;;;5090026;28;20093;-73
2024/01/05 03:24:30;;;;;;;12.40;7.30;;;;;;;;;;5076443;28;20468;-72
2024/01/05 03:26:56;;;;;;;11.50;7.07;;;;;;;;;;5072839;28;20036;-73
2024/01/05 03:29:22;;;;;;;13.15;7.57;;;;;;;;;;5082213;28;20040;-72
2024/01/05 03:31:48;;;;;;;14.70;7.90;;;;;;;;;;5071805;28;20450;-72
2024/01/05 03:34:15;;;;;;;12.60;7.80;;;;;;;;;;5055048;28;20135;-72
2024/01/05 03:36:41;;;;;;;11.23;7.32;;;;;;;;;;5073793;28;20054;-72
2024/01/05 03:39:08;;;;;;;11.30;7.05;;;;;;;;;;5070719;28;20100;-72
2024/01/05 03:41:34;;;;;;;10.63;7.03;;;;;;;;;;5087240;28;20040;-72
2024/01/05 03:44:01;;;;;;;13.32;7.75;;;;;;;;;;5088088;28;20036;-72
2024/01/05 03:46:27;;;;;;;11.60;7.80;;;;;;;;;;5076434;28;20036;-72
2024/01/05 03:48:53;;;;;;;14.77;7.63;;;;;;;;;;5086252;28;20032;-72
2024/01/05 03:51:19;;;;;;;12.68;7.93;;;;;;;;;;5061882;28;20072;-72
2024/01/05 03:53:45;;;;;;;13.45;8.15;;;;;;;;;;5074342;28;20086;-72
2024/01/05 03:56:12;;;;;;;10.68;7.43;;;;;;;;;;5065658;28;20078;-76
2024/01/05 03:58:38;;;;;;;9.90;7.43;;;;;;;;;;5089877;28;20114;-76
2024/01/05 04:01:04;;;;;;;12.38;7.72;;;;;;;;;;5058514;28;20040;-76
2024/01/05 04:03:31;;;;;;;12.38;7.45;;;;;;;;;;5071360;28;20047;-75
2024/01/05 04:05:57;;;;;;;11.15;7.43;;;;;;;;;;5075217;28;20048;-75
2024/01/05 04:08:23;;;;;;;12.60;7.30;;;;;;;;;;5071292;28;20044;-75
2024/01/05 04:10:49;;;;;;;17.73;7.15;;;;;;;;;;5081921;28;20384;-75
2024/01/05 04:13:15;;;;;;;11.48;7.13;;;;;;;;;;5071225;28;20040;-75
2024/01/05 04:15:42;;;;;;;9.30;6.63;;;;;;;;;;5083617;28;20497;-75
2024/01/05 04:18:08;;;;;;;12.07;7.32;;;;;;;;;;5087987;28;20024;-75
2024/01/05 04:20:34;;;;;;;12.35;6.93;;;;;;;;;;5087685;28;20043;-75
2024/01/05 04:23:00;;;;;;;11.00;6.93;;;;;;;;;;5075668;28;20044;-75
2024/01/05 04:25:27;;;;;;;9.05;6.25;;;;;;;;;;5072560;28;20091;-75
2024/01/05 04:27:53;;;;;;;10.95;6.88;;;;;;;;;;5084947;28;20071;-75
2024/01/05 04:30:21;;;;;;;9.93;6.28;;;;;;;;;;5087668;28;20047;-75
2024/01/05 04:32:47;;;;;;;9.90;6.80;;;;;;;;;;5060091;28;20478;-76
2024/01/05 04:35:13;;;;;;;11.43;6.32;;;;;;;;;;5055244;28;20067;-75
2024/01/05 04:37:39;;;;;;;9.40;6.63;;;;;;;;;;5088598;28;20032;-75
2024/01/05 04:40:06;;;;;;;10.43;6.38;;;;;;;;;;5065734;28;20041;-76
2024/01/05 04:42:32;;;;;;;10.02;6.45;;;;;;;;;;5071744;28;20051;-75
2024/01/05 04:44:58;;;;;;;10.20;6.28;;;;;;;;;;5054581;28;20443;-75
2024/01/05 04:47:25;;;;;;;12.38;6.75;;;;;;;;;;5037868;28;20123;-75
2024/01/05 04:49:51;;;;;;;10.43;6.60;;;;;;;;;;5072261;28;20036;-72
2024/01/05 04:52:17;;;;;;;10.75;6.57;;;;;;;;;;5076121;28;20048;-72
2024/01/05 04:54:43;;;;;;;10.68;6.55;;;;;;;;;;5076062;28;20071;-72
2024/01/05 04:57:09;;;;;;;10.88;6.30;;;;;;;;;;5092042;28;20032;-72
2024/01/05 04:59:35;;;;;;;10.25;6.10;;;;;;;;;;5058237;28;20471;-72
2024/01/05 05:02:01;;;;;;;10.25;6.82;;;;;;;;;;5075666;28;20056;-72
2024/01/05 05:04:27;;;;;;;10.20;6.32;;;;;;;;;;5043279;28;20043;-72
2024/01/05 05:06:53;;;;;;;9.40;6.00;;;;;;;;;;5075577;28;20040;-73
2024/01/05 05:09:20;;;;;;;10.48;6.95;;;;;;;;;;5062883;28;20059;-72
2024/01/05 05:11:46;;;;;;;9.40;6.25;;;;;;;;;;5074576;28;20154;-72
2024/01/05 05:14:12;;;;;;;10.50;6.28;;;;;;;;;;5081031;28;20040;-71
2024/01/05 05:16:39;;;;;;;9.32;6.13;;;;;;;;;;5074372;28;20062;-72
2024/01/05 05:19:06;;;;;;;8.20;5.72;;;;;;;;;;5054473;28;20028;-73
2024/01/05 05:21:32;;;;;;;9.52;6.10;;;;;;;;;;5076685;28;20055;-72
2024/01/05 05:23:58;;;;;;;9.55;6.18;;;;;;;;;;5052335;28;20079;-72
2024/01/05 05:26:24;;;;;;;10.07;6.22;;;;;;;;;;5083839;28;20043;-72
2024/01/05 05:28:50;;;;;;;9.60;6.22;;;;;;;;;;5058736;28;20043;-73
2024/01/05 05:31:16;;;;;;;11.40;6.47;;;;;;;;;;5081260;28;20037;-75
2024/01/05 05:33:42;;;;;;;8.55;6.05;;;;;;;;;;5083913;28;20036;-74
2024/01/05 05:36:09;;;;;;;8.63;6.13;;;;;;;;;;5082843;28;20388;-74
2024/01/05 05:38:35;;;;;;;9.13;6.72;;;;;;;;;;5059136;28;20040;-75
2024/01/05 05:41:01;;;;;;;8.90;6.20;;;;;;;;;;5074027;28;20047;-74
2024/01/05 05:43:27;;;;;;;9.75;6.75;;;;;;;;;;5092020;28;20487;-75
2024/01/05 05:45:56;;;;;;;12.18;6.88;;;;;;;;;;5077437;28;20040;-75
2024/01/05 05:48:22;;;;;;;10.57;6.75;;;;;;;;;;5094088;28;20082;-75
2024/01/05 05:50:49;;;;;;;9.70;6.70;;;;;;;;;;5093537;28;20144;-74
2024/01/05 05:53:15;;;;;;;9.55;6.55;;;;;;;;;;5077047;28;20040;-74
2024/01/05 05:55:41;;;;;;;8.50;5.97;;;;;;;;;;5058692;28;20074;-75
2024/01/05 05:58:08;;;;;;;9.50;6.70;;;;;;;;;;5073475;28;20203;-75
2024/01/05 06:00:35;;;;;;;12.70;6.78;;;;;;;;;;5071044;28;20051;-75
2024/01/05 06:03:01;;;;;;;10.77;6.88;;;;;;;;;;5055065;28;20036;-75
2024/01/05 06:05:27;;;;;;;10.32;7.18;;;;;;;;;;5072948;28;20043;-75
2024/01/05 06:07:54;;;;;;;10.43;7.30;;;;;;;;;;5073230;28;20488;-75
2024/01/05 06:10:20;;;;;;;10.68;7.00;;;;;;;;;;5072903;28;20055;-75
2024/01/05 06:12:46;;;;;;;11.80;6.75;;;;;;;;;;5073491;28;20067;-72
2024/01/05 06:15:12;;;;;;;14.05;6.45;;;;;;;;;;5072729;28;20036;-72
2024/01/05 06:17:38;;;;;;;12.77;7.78;;;;;;;;;;5072408;28;20041;-72
2024/01/05 06:20:05;;;;;;;13.48;7.40;;;;;;;;;;5072554;28;20044;-72
2024/01/05 06:22:32;;;;;;;9.30;6.45;;;;;;;;;;5056732;28;20044;-72
2024/01/05 06:24:58;;;;;;;11.23;7.63;;;;;;;;;;5072293;28;20044;-72
2024/01/05 06:27:24;;;;;;;10.48;7.45;;;;;;;;;;5071637;28;20055;-72
2024/01/05 06:29:50;;;;;;;11.30;7.95;;;;;;;;;;5070367;28;20389;-72
2024/01/05 06:32:16;;;;;;;12.85;7.53;;;;;;;;;;5073573;28;20040;-74
2024/01/05 06:34:42;;;;;;;11.60;7.70;;;;;;;;;;5055966;28;20043;-75
2024/01/05 06:37:08;;;;;;;14.48;8.13;;;;;;;;;;5078591;28;20028;-75
2024/01/05 06:39:34;;;;;;;11.32;8.10;;;;;;;;;;5072187;28;20072;-75
2024/01/05 06:42:01;;;;;;;11.32;7.28;;;;;;;;;;5080714;28;20042;-75
2024/01/05 06:44:27;;;;;;;10.07;7.78;;;;;;;;;;5092736;28;20079;-74
2024/01/05 06:46:53;;;;;;;10.93;6.90;;;;;;;;;;5057808;28;20072;-74
2024/01/05 06:49:19;;;;;;;9.35;6.32;;;;;;;;;;5056106;28;20045;-75
2024/01/05 06:51:45;;;;;;;9.82;6.43;;;;;;;;;;5055708;28;20052;-74
2024/01/05 06:54:13;;;;;;;9.15;6.57;;;;;;;;;;5073050;28;20067;-75
2024/01/05 06:56:42;;;;;;;10.45;6.22;;;;;;;;;;5072083;28;20044;-74
2024/01/05 06:59:09;;;;;;;9.18;6.05;;;;;;;;;;5084015;28;20044;-74
2024/01/05 07:01:35;;;;;;;9.50;6.95;;;;;;;;;;5044710;28;20048;-75
2024/01/05 07:04:03;;;;;;;10.50;6.68;;;;;;;;;;5072159;28;20455;-75
2024/01/05 07:06:29;;;;;;;13.50;7.13;;;;;;;;;;5072158;28;20040;-76
2024/01/05 07:08:55;;;;;;;9.82;6.75;;;;;;;;;;5055505;28;20049;-76
2024/01/05 07:11:22;;;;;;;12.15;7.47;;;;;;;;;;5055639;28;20048;-75
2024/01/05 07:13:48;;;;;;;9.68;7.13;;;;;;;;;;5057895;28;20047;-75
2024/01/05 07:16:18;;;;;;;16.30;7.68;;;;;;;;;;5080558;28;20035;-75
2024/01/05 07:18:44;;;;;;;12.07;7.95;;;;;;;;;;5090230;28;20093;-75
2024/01/05 07:21:11;;;;;;;11.65;8.35;;;;;;;;;;5088201;28;20047;-75
2024/01/05 07:23:37;;;;;;;11.82;7.70;;;;;;;;;;5085641;28;20044;-75
2024/01/05 07:26:03;;;;;;;11.57;8.15;;;;;;;;;;5055063;28;20032;-75
2024/01/05 07:28:29;;;;;;;10.13;7.47;;;;;;;;;;5062218;28;20098;-75
2024/01/05 07:30:55;;;;;;;13.90;8.18;;;;;;;;;;5090865;28;20137;-75
2024/01/05 07:33:21;;;;;;;13.18;8.05;;;;;;;;;;5070449;28;20044;-76
2024/01/05 07:35:48;;;;;;;13.07;8.25;;;;;;;;;;5083559;28;20027;-75
2024/01/05 07:38:14;;;;;;;13.20;8.60;;;;;;;;;;5082787;28;20036;-75
2024/01/05 07:40:40;;;;;;;13.68;8.43;;;;;;;;;;5076750;28;20036;-75
2024/01/05 07:43:07;;;;;;;12.45;8.23;;;;;;;;;;5071964;28;20135;-75
2024/01/05 07:45:33;;;;;;;15.70;9.07;;;;;;;;;;5073757;28;20044;-73
2024/01/05 07:48:00;;;;;;;11.55;8.02;;;;;;;;;;5086340;28;20479;-73
2024/01/05 07:50:26;;;;;;;13.68;7.60;;;;;;;;;;5060061;28;20127;-73
2024/01/05 07:52:52;;;;;;;12.75;7.70;;;;;;;;;;5068736;28;20040;-73
2024/01/05 07:55:19;;;;;;;12.18;7.95;;;;;;;;;;5089249;28;20074;-73
2024/01/05 07:57:45;;;;;;;11.45;8.13;;;;;;;;;;5070944;28;20076;-73
2024/01/05 08:00:11;;;;;;;13.32;8.50;;;;;;;;;;5071180;28;20041;-73
2024/01/05 08:02:37;;;;;;;11.82;8.13;;;;;;;;;;5058559;28;20104;-74
2024/01/05 08:05:04;;;;;;;11.13;7.70;;;;;;;;;;5066907;28;20055;-74
2024/01/05 08:07:30;;;;;;;13.65;8.52;;;;;;;;;;5065685;28;20048;-74
2024/01/05 08:09:56;;;;;;;12.65;8.30;;;;;;;;;;5087033;28;20039;-74
2024/01/05 08:12:22;;;;;;;11.80;8.32;;;;;;;;;;5082801;28;20033;-74
2024/01/05 08:14:49;;;;;;;11.90;8.05;;;;;;;;;;5077807;28;20119;-74
2024/01/05 08:17:15;;;;;;;11.00;7.95;;;;;;;;;;5074064;28;20054;-74
2024/01/05 08:19:41;;;;;;;13.55;8.75;;;;;;;;;;5062131;28;20137;-74
2024/01/05 08:22:07;;;;;;;11.35;8.38;;;;;;;;;;5075871;28;20043;-74
2024/01/05 08:24:33;;;;;;;11.43;7.93;;;;;;;;;;5089325;28;20130;-74
2024/01/05 08:26:59;;;;;;;12.27;8.38;;;;;;;;;;5084351;28;20123;-74
2024/01/05 08:29:25;;;;;;;13.60;8.50;;;;;;;;;;5084932;28;20044;-74
2024/01/05 08:31:51;;;;;;;14.27;8.45;;;;;;;;;;5082406;28;20056;-74
2024/01/05 08:34:18;;;;;;;14.32;9.18;;;;;;;;;;5075615;28;20131;-74
2024/01/05 08:36:44;;;;;;;13.48;8.25;;;;;;;;;;5075249;28;20032;-74
2024/01/05 08:39:10;;;;;;;11.55;8.35;;;;;;;;;;5076213;28;20040;-74
2024/01/05 08:41:36;;;;;;;14.80;8.25;;;;;;;;;;5084756;28;20079;-74
2024/01/05 08:44:02;;;;;;;12.10;8.32;;;;;;;;;;5081263;28;20043;-74
2024/01/05 08:46:28;;;;;;;12.73;8.32;;;;;;;;;;5084857;28;20076;-74
2024/01/05 08:48:54;;;;;;;12.63;9.27;;;;;;;;;;5084694;28;20094;-74
2024/01/05 08:51:21;;;;;;;13.20;8.32;;;;;;;;;;5078258;28;20048;-73
2024/01/05 08:53:47;;;;;;;14.48;8.07;;;;;;;;;;5087732;28;20052;-73
2024/01/05 08:56:13;;;;;;;15.18;8.10;;;;;;;;;;5078075;28;20040;-73
2024/01/05 08:58:41;;;;;;;14.75;8.73;;;;;;;;;;5090367;28;20040;-73
2024/01/05 09:01:07;;;;;;;15.35;9.00;;;;;;;;;;5060157;28;20056;-73
2024/01/05 09:03:33;;;;;;;11.98;8.55;;;;;;;;;;5068116;28;20037;-74
2024/01/05 09:05:59;;;;;;;14.13;8.65;;;;;;;;;;5086111;28;20077;-73
2024/01/05 09:08:26;;;;;;;12.73;8.52;;;;;;;;;;5077364;28;20036;-73
2024/01/05 09:10:52;;;;;;;17.25;8.77;;;;;;;;;;5083204;28;20396;-73
2024/01/05 09:13:18;;;;;;;12.20;8.20;;;;;;;;;;5074264;28;20512;-72
2024/01/05 09:15:47;;;;;;;11.68;8.10;;;;;;;;;;5075471;28;20078;-73
2024/01/05 09:18:13;;;;;;;13.07;8.10;;;;;;;;;;5088316;28;20041;-73
2024/01/05 09:20:39;;;;;;;14.40;8.40;;;;;;;;;;5075944;28;20049;-73
2024/01/05 09:23:06;;;;;;;11.65;8.18;;;;;;;;;;5079412;28;20036;-73
2024/01/05 09:25:32;;;;;;;12.77;8.32;;;;;;;;;;5073393;28;20040;-73
2024/01/05 09:28:03;;;;;;;12.48;7.97;;;;;;;;;;5073203;28;20037;-73
2024/01/05 09:30:30;;;;;;;11.07;7.57;;;;;;;;;;5074541;28;20045;-76
2024/01/05 09:32:57;;;;;;;10.80;7.35;;;;;;;;;;5073335;28;20040;-76
2024/01/05 09:35:25;;;;;;;11.88;7.70;;;;;;;;;;5072280;28;20036;-76
2024/01/05 09:37:51;;;;;;;14.00;8.15;;;;;;;;;;5080733;28;20098;-76
2024/01/05 09:40:17;;;;;;;11.52;7.70;;;;;;;;;;5079069;28;20131;-76
2024/01/05 09:42:50;;;;;;;12.52;7.68;;;;;;;;;;5074307;28;20434;-75
2024/01/05 09:45:16;;;;;;;12.40;7.57;;;;;;;;;;5075051;28;20040;-76
2024/01/05 09:47:43;;;;;;;11.15;7.43;;;;;;;;;;5063265;28;20048;-76
2024/01/05 09:50:10;;;;;;;12.02;7.72;;;;;;;;;;5080924;28;20048;-76
2024/01/05 09:52:36;;;;;;;9.95;7.50;;;;;;;;;;5058095;28;20050;-76
2024/01/05 09:55:02;;;;;;;11.60;7.95;;;;;;;;;;5056512;28;20044;-76
2024/01/05 09:57:28;;;;;;;10.23;7.50;;;;;;;;;;5084153;28;20032;-76
2024/01/05 09:59:56;;;;;;;10.75;7.80;;;;;;;;;;5079066;28;20464;-75
2024/01/05 10:02:27;;;;;;;11.32;8.00;;;;;;;;;;5072933;28;20166;-76
2024/01/05 10:04:55;;;;;;;12.25;7.65;;;;;;;;;;5088722;28;20043;-76
2024/01/05 10:07:21;;;;;;;13.40;8.05;;;;;;;;;;5064005;28;20054;-76
2024/01/05 10:09:51;;;;;;;11.13;7.75;;;;;;;;;;5075715;28;20028;-76
2024/01/05 10:12:20;;;;;;;11.35;7.47;;;;;;;;;;5058029;28;20037;-76
2024/01/05 10:14:49;;;;;;;11.15;8.07;;;;;;;;;;5078184;28;20064;-76
2024/01/05 10:17:15;;;;;;;11.55;7.97;;;;;;;;;;5073734;28;20415;-76
2024/01/05 10:19:41;;;;;;;10.00;7.30;;;;;;;;;;5075020;28;20041;-76
2024/01/05 10:22:11;;;;;;;10.40;7.32;;;;;;;;;;5071451;28;20131;-75
2024/01/05 10:24:38;;;;;;;11.40;8.15;;;;;;;;;;5052444;28;20048;-75
2024/01/05 10:27:11;;;;;;;11.02;7.57;;;;;;;;;;5059688;28;20072;-73
2024/01/05 10:29:42;;;;;;;12.77;8.23;;;;;;;;;;5072563;28;20557;-73
2024/01/05 10:32:11;;;;;;;12.93;7.97;;;;;;;;;;5073423;28;20068;-73
2024/01/05 10:34:38;;;;;;;11.50;7.93;;;;;;;;;;5080028;28;20411;-73
2024/01/05 10:37:04;;;;;;;11.60;7.97;;;;;;;;;;5075440;28;20047;-73
2024/01/05 10:39:30;;;;;;;13.80;7.70;;;;;;;;;;5074756;28;20043;-73
2024/01/05 10:42:14;;;;;;;10.93;7.53;;;;;;;;;;5083800;28;20468;-73
2024/01/05 10:44:42;;;;;;;10.73;7.05;;;;;;;;;;5079655;28;20041;-73
2024/01/05 10:47:08;;;;;;;9.15;6.88;;;;;;;;;;5073820;28;20464;-73
2024/01/05 10:49:34;;;;;;;11.27;7.72;;;;;;;;;;5072146;28;20055;-73
2024/01/05 10:52:01;;;;;;;10.00;7.43;;;;;;;;;;5066758;28;20449;-73
2024/01/05 10:54:30;;;;;;;10.38;7.40;;;;;;;;;;5072089;28;20044;-73
2024/01/05 10:56:57;;;;;;;11.20;6.72;;;;;;;;;;5072464;28;20040;-73
2024/01/05 10:59:24;;;;;;;11.15;6.80;;;;;;;;;;5089069;28;20123;-73
2024/01/05 11:01:56;;;;;;;9.35;6.50;;;;;;;;;;5072414;28;20063;-73
2024/01/05 11:04:23;;;;;;;10.48;7.20;;;;;;;;;;5062878;28;20051;-73
2024/01/05 11:06:50;;;;;;;8.90;6.72;;;;;;;;;;5072184;28;20040;-73
2024/01/05 11:09:36;;;;;;;5.88;3.35;;;;;;;;;;5056389;28;20499;-71
2024/01/05 11:12:21;;;;;;;9.57;6.78;;;;;;;;;;5083191;28;20070;-75
2024/01/05 11:14:55;;;;;;;11.50;6.82;;;;;;;;;;5054277;28;20042;-75
2024/01/05 11:17:37;;;;;;;10.00;6.72;;;;;;;;;;5083573;28;20453;-75
2024/01/05 11:20:06;;;;;;;9.00;6.50;;;;;;;;;;5075557;28;20076;-75
2024/01/05 11:22:34;;;;;;;9.52;7.10;;;;;;;;;;5071937;28;20279;-75
2024/01/05 11:25:02;;;;;;;10.23;6.88;;;;;;;;;;5087649;28;20036;-75
2024/01/05 11:27:35;;;;;;;9.52;6.50;;;;;;;;;;5083265;28;20071;-75
2024/01/05 11:30:04;;;;;;;9.93;6.25;;;;;;;;;;5071141;28;20029;-75
2024/01/05 11:32:46;;;;;;;8.07;6.28;;;;;;;;;;5073156;28;20037;-75
2024/01/05 11:35:19;;;;;;;9.52;6.65;;;;;;;;;;5078450;28;20028;-75
2024/01/05 11:37:46;;;;;;;8.77;6.50;;;;;;;;;;5088946;28;20036;-75
2024/01/05 11:40:31;;;;;;;10.35;6.45;;;;;;;;;;5066380;28;20040;-75
2024/01/05 11:42:58;;;;;;;7.90;6.28;;;;;;;;;;5058167;28;20036;-75
2024/01/05 11:45:42;;;;;;;8.98;6.65;;;;;;;;;;5071804;28;20488;-75
2024/01/05 11:48:33;;;;;;;9.95;6.57;;;5.30;99.90;;;;;;5081623;28;20075;-75
2024/01/05 11:50:59;;;;;;;9.27;6.53;;;;;;;;;;5083813;28;20139;-72
2024/01/05 11:53:27;;;;;;;11.82;6.82;;;;;;;;;;5052375;28;20051;-72
2024/01/05 11:55:56;;;;;;;10.90;6.82;;;;;;;;;;5079504;28;20031;-72
2024/01/05 11:58:31;;;;;;;12.77;7.47;;;;;;;;;;5089246;28;20032;-72
2024/01/05 12:01:02;;;;;;;9.98;6.70;;;;;;;;;;5087007;28;20032;-75
2024/01/05 12:03:28;;;;;;;10.70;7.05;;;;;;;;;;5055799;28;20094;-75
2024/01/05 12:05:58;;;;;;;9.45;6.72;;;;;;;;;;5074161;28;20033;-75
2024/01/05 12:08:24;;;;;;;12.35;6.90;;;;;;;;;;5080072;28;20040;-75
2024/01/05 12:10:54;;;;;;;11.25;7.13;;;;;;;;;;5081805;28;20089;-75
2024/01/05 12:13:26;;;;;;;10.73;7.05;;;;;;;;;;5069934;28;20079;-76
2024/01/05 12:15:55;;;;;;;11.05;7.80;;;;;;;;;;5073097;28;20044;-75
2024/01/05 12:18:30;;;;;;;12.65;7.63;;;;;;;;;;5054549;28;20131;-75
2024/01/05 12:20:59;;;;;;;11.63;7.53;;;;;;;;;;5076751;28;20146;-75
2024/01/05 12:23:29;;;;;;;11.18;7.63;;;;;;;;;;5081896;28;20040;-76
2024/01/05 12:25:59;;;;;;;11.95;7.55;;;;;;;;;;5072317;28;20043;-76
2024/01/05 12:28:25;;;;;;;12.18;7.72;;;;;;;;;;5073435;28;20092;-76
2024/01/05 12:30:52;;;;;;;9.82;7.57;;;;;;;;;;5079260;28;20131;-75
2024/01/05 12:33:18;;;;;;;10.93;7.78;;;;;;;;;;5064873;28;20087;-76
2024/01/05 12:35:44;;;;;;;13.18;8.05;;;;;;;;;;5072028;28;20498;-75
2024/01/05 12:38:10;;;;;;;11.27;7.50;;;;;;;;;;5071270;28;20491;-75
2024/01/05 12:40:37;;;;;;;11.13;7.72;;;;;;;;;;5070993;28;20048;-75
2024/01/05 12:43:03;;;;;;;13.25;8.25;;;;;;;;;;5077649;28;20078;-75
2024/01/05 12:45:30;;;;;;;11.13;7.28;;;;;;;;;;5078433;28;20079;-76
2024/01/05 12:47:56;;;;;;;12.40;7.97;;;;;;;;;;5069620;28;20044;-76
2024/01/05 12:50:29;;;;;;;13.43;7.47;;;;;;;;;;5058855;28;20052;-75
2024/01/05 12:52:55;;;;;;;11.00;7.60;;;;;;;;;;5091017;28;20416;-76
2024/01/05 12:55:34;;;;;;;10.82;7.40;;;;;;;;;;5063340;28;20264;-75
2024/01/05 12:58:04;;;;;;;12.15;7.35;;;;;;;;;;5054402;28;20049;-75
2024/01/05 13:00:30;;;;;;;13.63;7.07;;;;;;;;;;5070644;28;20051;-73
2024/01/05 13:02:56;;;;;;;12.25;7.75;;;;;;;;;;5085972;28;20048;-73
2024/01/05 13:05:26;;;;;;;11.50;7.55;;;;;;;;;;5056954;28;20044;-72
2024/01/05 13:07:53;;;;;;;11.43;7.20;;;;;;;;;;5074113;28;20044;-73
2024/01/05 13:10:19;;;;;;;10.38;7.65;;;;;;;;;;5058546;28;20036;-72
2024/01/05 13:12:46;;;;;;;11.63;7.70;;;;;;;;;;5059942;28;20098;-72
2024/01/05 13:15:12;;;;;;;12.00;7.15;;;;;;;;;;5088257;28;20036;-73
2024/01/05 13:17:43;;;;;;;11.55;6.75;;;;;;;;;;5082221;28;20036;-73
2024/01/05 13:20:10;;;;;;;13.57;7.43;;;;;;;;;;5107663;28;20076;-73
2024/01/05 13:22:36;;;;;;;10.63;7.63;;;;;;;;;;5059407;28;20032;-73
2024/01/05 13:25:02;;;;;;;12.27;7.50;;;;;;;;;;5074728;28;20113;-73
2024/01/05 13:27:28;;;;;;;12.95;7.60;;;;;;;;;;5071573;28;20040;-72
2024/01/05 13:29:54;;;;;;;10.63;7.65;;;;;;;;;;5076562;28;20040;-72
2024/01/05 13:32:20;;;;;;;11.45;8.18;;;;;;;;;;5079515;28;20045;-72
2024/01/05 13:34:46;;;;;;;13.60;7.50;;;;;;;;;;5073956;28;20048;-73
2024/01/05 13:37:12;;;;;;;10.93;7.78;;;;;;;;;;5070727;28;20028;-73
2024/01/05 13:39:39;;;;;;;12.90;8.10;;;;;;;;;;5078216;28;20040;-73
2024/01/05 13:42:05;;;;;;;12.88;7.97;;;;;;;;;;5073550;28;20396;-72
2024/01/05 13:44:32;;;;;;;11.93;7.93;;;;;;;;;;5075127;28;20072;-72
2024/01/05 13:46:58;;;;;;;16.35;8.23;;;;;;;;;;5076094;28;20106;-72
2024/01/05 13:49:24;;;;;;;13.77;7.82;;;;;;;;;;5071323;28;20507;-73
2024/01/05 13:51:50;;;;;;;13.77;8.40;;;;;;;;;;5088350;28;20048;-72
2024/01/05 13:54:16;;;;;;;13.07;8.27;;;;;;;;;;5088061;28;20043;-72
2024/01/05 13:56:42;;;;;;;13.13;7.95;;;;;;;;;;5067374;28;20076;-72
2024/01/05 13:59:09;;;;;;;13.30;8.23;;;;;;;;;;5071139;28;20031;-72
2024/01/05 14:01:35;;;;;;;16.10;7.47;;;;;;;;;;5072902;28;20136;-73
2024/01/05 14:04:01;;;;;;;14.00;7.72;;;;;;;;;;5085277;28;20181;-73
2024/01/05 14:06:27;;;;;;;11.27;8.10;;;;;;;;;;5090022;28;20487;-75
2024/01/05 14:08:53;;;;;;;12.23;8.00;;;;;;;;;;5081528;28;20353;-72
2024/01/05 14:11:19;;;;;;;12.90;8.65;;;;;;;;;;5079495;28;20050;-72
2024/01/05 14:13:45;;;;;;;14.00;7.57;;;;;;;;;;5083810;28;20040;-72
2024/01/05 14:16:11;;;;;;;14.85;8.43;;;;;;;;;;5056789;28;20059;-72
2024/01/05 14:18:37;;;;;;;10.52;7.25;;;;;;;;;;5073256;28;20029;-73
2024/01/05 14:21:04;;;;;;;11.13;7.43;;;;;;;;;;5072695;28;20055;-72
2024/01/05 14:23:30;;;;;;;10.85;7.50;;;;;;;;;;5073017;28;20519;-73
2024/01/05 14:25:57;;;;;;;11.02;7.32;;;;;;;;;;5056666;28;20131;-72
2024/01/05 14:28:23;;;;;;;12.32;8.13;;;;;;;;;;5072593;28;20485;-72
2024/01/05 14:30:49;;;;;;;12.02;7.72;;;;;;;;;;5056227;28;20435;-73